Portada
METAR-TAF:

METAR-TAF

Aeroports :

Port Vila, Éfaté, Vanuatu

latitud: 17-42S, longitud: 168-18E, altitud: 20 m

Observació

L'informe es va fer fa 44 minuts, a les 09:00 UTC
Vent 2 kt del Nord/Nord-Est
Temperatura 22°C
Humitat 94%
Pressió 1017 hPa
Visibilitat 10 km o més
Núvols disperses a una alçada de 2000 ft
Cel ennuvolat a una alçada de 4000 ft

METAR: NVVV 150900Z 02002KT 9999 SCT020 BKN040 22/21 Q1017 RMKS RESH

Hora: 20:44 (09:44 UTC)

Pronòstic

L'informe es va fer fa 5 hores i 14 minuts, a les 04:30 UTC
Pronòstic vàlid del 15 a les 06 UTC al 16 a les 06 UTC
Vent 6 kt del Est/Sud-Est
Visibilitat: 9000 m
Núvols disperses a una alçada de 2000 ft
Cel ennuvolat a una alçada de 4000 ft
Cel ennuvolat a una alçada de 1800 ft
xàfecs de pluja

TAF: NVVV 150430Z 1506/1606 11006KT 9999 SCT020 BKN040 INTER 1506/1512 9000 -SHRA BKN018

Observacions i pronòstics meteorològics de més de 4000 aeroports (METAR i TAF).

Les estacions disponibles són els punts grocs i vermells al mapa.

Posi el ratolí al punt desitjat per veure el nom de l'estació.

Feu clic per veure les observacions i els pronòstics meteorològics.

Per canviar el mapa: feu clic els botons verds amb una creu de color negre per apropar; al botó verd amb un guió per allunyar la imatge; o en les fletxes verdes per a mapes adjacents.


METAR-TAF: